createdAt,value
2022-09-01T00:00:14.998Z,92.67
2022-09-01T00:02:44.141Z,94.39
2022-09-01T00:05:12.883Z,95.46
2022-09-01T00:07:41.130Z,95.54
2022-09-01T00:10:10.384Z,94.88
2022-09-01T00:12:39.256Z,94.17
2022-09-01T00:15:10.891Z,93.68
2022-09-01T00:17:38.736Z,93.12
2022-09-01T00:20:07.543Z,92.69
2022-09-01T00:22:35.422Z,92.37
2022-09-01T00:25:03.236Z,92.44
2022-09-01T00:27:31.218Z,92.14
2022-09-01T00:29:59.387Z,92.05
2022-09-01T00:32:29.027Z,91.85
2022-09-01T00:34:57.126Z,91.48
2022-09-01T00:37:24.976Z,91.54
2022-09-01T00:39:52.883Z,91.70
2022-09-01T00:42:20.830Z,92.02
2022-09-01T00:44:48.991Z,92.43
2022-09-01T00:47:17.045Z,93.21
2022-09-01T00:49:48.459Z,93.01
2022-09-01T00:52:20.368Z,92.66
2022-09-01T00:54:51.791Z,94.04
2022-09-01T00:57:19.677Z,95.27
2022-09-01T00:59:52.675Z,96.00
2022-09-01T01:02:20.651Z,96.14
2022-09-01T01:04:52.735Z,96.70
2022-09-01T01:07:22.943Z,96.63
2022-09-01T01:09:52.343Z,96.54
2022-09-01T01:12:21.581Z,95.98
2022-09-01T01:14:51.822Z,97.81
2022-09-01T01:17:22.660Z,98.59
2022-09-01T01:20:11.192Z,98.45
2022-09-01T01:23:05.601Z,95.91
2022-09-01T01:25:39.775Z,95.47
2022-09-01T01:28:12.012Z,95.25
2022-09-01T01:30:41.967Z,94.93
2022-09-01T01:33:10.083Z,95.96
2022-09-01T01:35:39.999Z,96.06
2022-09-01T01:38:08.728Z,96.40
2022-09-01T01:40:39.145Z,96.20
2022-09-01T01:43:08.780Z,96.74
2022-09-01T01:45:36.829Z,96.46
2022-09-01T01:48:10.882Z,95.86
2022-09-01T01:50:40.639Z,95.79
2022-09-01T01:53:10.889Z,95.19
2022-09-01T01:55:43.794Z,95.86
2022-09-01T01:58:12.516Z,96.51
2022-09-01T02:00:42.863Z,96.87
2022-09-01T02:03:12.770Z,96.69
2022-09-01T02:05:40.920Z,96.86
2022-09-01T02:08:10.874Z,96.45
2022-09-01T02:10:43.723Z,95.67
2022-09-01T02:13:16.470Z,95.74
2022-09-01T02:15:47.414Z,96.30
2022-09-01T02:18:18.240Z,96.50
2022-09-01T02:20:47.686Z,97.78
2022-09-01T02:23:18.134Z,98.50
2022-09-01T02:26:14.087Z,98.07
2022-09-01T02:28:40.004Z,97.14
2022-09-01T02:31:08.973Z,98.19
2022-09-01T02:33:38.029Z,98.94
2022-09-01T02:36:12.764Z,98.47
2022-09-01T02:38:41.821Z,99.70
2022-09-01T02:41:12.063Z,99.37
2022-09-01T02:43:40.269Z,98.22
2022-09-01T02:46:08.463Z,99.25
2022-09-01T02:48:39.354Z,99.76
2022-09-01T02:51:11.403Z,100.00
2022-09-01T02:53:41.761Z,100.00
2022-09-01T02:56:14.189Z,100.00
2022-09-01T02:58:46.794Z,98.73
2022-09-01T03:01:21.097Z,98.26
2022-09-01T03:03:50.101Z,97.94
2022-09-01T03:06:21.055Z,99.60
2022-09-01T03:08:49.376Z,99.50
2022-09-01T03:11:19.101Z,99.11
2022-09-01T03:13:46.935Z,98.64
2022-09-01T03:16:14.832Z,97.44
2022-09-01T03:18:43.259Z,98.01
2022-09-01T03:21:15.036Z,98.57
2022-09-01T03:23:44.880Z,99.29
2022-09-01T03:26:13.727Z,100.00
2022-09-01T03:28:43.349Z,100.00
2022-09-01T03:31:11.389Z,100.00
2022-09-01T03:33:39.596Z,100.00
2022-09-01T03:36:19.119Z,100.00
2022-09-01T03:38:49.173Z,100.00
2022-09-01T03:41:21.591Z,100.00
2022-09-01T03:43:51.280Z,100.00
2022-09-01T03:46:22.413Z,100.00
2022-09-01T03:48:52.717Z,100.00
2022-09-01T03:51:22.926Z,100.00
2022-09-01T03:53:54.556Z,100.00
2022-09-01T03:56:24.724Z,100.00
2022-09-01T03:58:54.827Z,100.00
2022-09-01T04:01:23.063Z,100.00
2022-09-01T04:03:52.239Z,100.00
2022-09-01T04:06:26.014Z,100.00
2022-09-01T04:09:02.751Z,100.00
2022-09-01T04:11:33.812Z,100.00
2022-09-01T04:14:03.442Z,100.00
2022-09-01T04:16:53.771Z,100.00
2022-09-01T04:19:26.499Z,100.00
2022-09-01T04:22:00.257Z,100.00
2022-09-01T04:24:34.848Z,100.00
2022-09-01T04:27:07.332Z,100.00
2022-09-01T04:29:37.117Z,100.00
2022-09-01T04:32:09.961Z,100.00
2022-09-01T04:34:41.808Z,100.00
2022-09-01T04:37:14.887Z,99.49
2022-09-01T04:39:51.243Z,99.21
2022-09-01T04:42:21.741Z,99.32
2022-09-01T04:44:51.461Z,100.00
2022-09-01T04:47:29.946Z,99.70
2022-09-01T04:50:14.340Z,99.40
2022-09-01T04:52:45.943Z,98.91
2022-09-01T04:55:30.328Z,99.24
2022-09-01T04:58:00.155Z,99.69
2022-09-01T05:00:32.727Z,99.97
2022-09-01T05:03:04.559Z,100.00
2022-09-01T05:05:54.116Z,100.00
2022-09-01T05:08:24.916Z,100.00
2022-09-01T05:10:57.045Z,100.00
2022-09-01T05:13:38.925Z,100.00
2022-09-01T05:16:13.070Z,100.00
2022-09-01T05:18:45.111Z,100.00
2022-09-01T05:21:16.478Z,100.00
2022-09-01T05:23:44.752Z,100.00
2022-09-01T05:26:16.962Z,100.00
2022-09-01T05:28:46.203Z,100.00
2022-09-01T05:31:19.658Z,100.00
2022-09-01T05:33:50.028Z,100.00
2022-09-01T05:36:21.563Z,100.00
2022-09-01T05:38:52.325Z,100.00
2022-09-01T05:41:23.988Z,100.00
2022-09-01T05:43:57.847Z,100.00
2022-09-01T05:46:30.172Z,100.00
2022-09-01T05:48:59.393Z,100.00
2022-09-01T05:51:46.435Z,100.00
2022-09-01T05:54:23.254Z,100.00
2022-09-01T05:56:53.617Z,100.00
2022-09-01T05:59:25.990Z,100.00
2022-09-01T06:02:00.835Z,100.00
2022-09-01T06:04:30.063Z,100.00
2022-09-01T06:07:08.502Z,100.00
2022-09-01T06:09:41.524Z,100.00
2022-09-01T06:12:17.894Z,100.00
2022-09-01T06:14:47.067Z,100.00
2022-09-01T06:17:22.151Z,99.90
2022-09-01T06:19:52.610Z,99.86
2022-09-01T06:22:20.784Z,100.00
2022-09-01T06:24:54.501Z,99.95
2022-09-01T06:27:24.710Z,99.84
2022-09-01T06:29:54.345Z,98.86
2022-09-01T06:32:25.981Z,97.38
2022-09-01T06:34:58.330Z,96.85
2022-09-01T06:37:28.893Z,96.08
2022-09-01T06:40:02.418Z,94.27
2022-09-01T06:42:35.390Z,94.79
2022-09-01T06:45:03.654Z,92.88
2022-09-01T06:47:33.811Z,92.21
2022-09-01T06:50:01.909Z,92.76
2022-09-01T06:53:32.165Z,91.26
2022-09-01T06:55:18.560Z,90.22
2022-09-01T06:58:13.922Z,89.67
2022-09-01T07:00:43.659Z,87.73
2022-09-01T07:03:14.966Z,87.01
2022-09-01T07:06:02.385Z,86.33
2022-09-01T07:14:28.304Z,82.76
2022-09-01T07:17:22.982Z,81.23
2022-09-01T07:22:37.233Z,79.54
2022-09-01T07:25:34.327Z,79.27
2022-09-01T07:28:25.391Z,78.87
2022-09-01T07:30:54.061Z,78.46
2022-09-01T07:36:29.656Z,75.32
2022-09-01T07:42:58.961Z,80.89
2022-09-01T07:45:26.633Z,73.18
2022-09-01T07:48:06.613Z,72.08
2022-09-01T07:53:36.774Z,72.22
2022-09-01T07:56:09.595Z,72.64
2022-09-01T07:58:43.160Z,71.84
2022-09-01T08:01:13.378Z,72.56
2022-09-01T08:03:42.580Z,72.24
2022-09-01T08:06:14.248Z,71.18
2022-09-01T08:08:43.551Z,71.04
2022-09-01T08:11:16.659Z,70.32
2022-09-01T08:13:44.822Z,70.83
2022-09-01T08:16:21.907Z,69.98
2022-09-01T08:18:51.274Z,70.67
2022-09-01T08:21:27.530Z,70.60
2022-09-01T08:24:09.623Z,70.49
2022-09-01T08:26:37.875Z,69.54
2022-09-01T08:29:06.958Z,68.76
2022-09-01T08:31:42.275Z,66.84
2022-09-01T08:34:12.872Z,67.80
2022-09-01T08:39:10.118Z,68.14
2022-09-01T08:41:47.248Z,67.75
2022-09-01T08:44:28.560Z,66.59
2022-09-01T08:47:02.687Z,67.56
2022-09-01T08:49:42.531Z,65.89
2022-09-01T08:52:20.013Z,66.04
2022-09-01T08:54:54.193Z,66.64
2022-09-01T08:57:24.771Z,67.74
2022-09-01T09:00:15.255Z,65.91
2022-09-01T09:03:00.192Z,64.55
2022-09-01T09:05:41.021Z,63.06
2022-09-01T09:08:33.609Z,62.65
2022-09-01T09:11:06.302Z,62.47
2022-09-01T09:13:48.227Z,61.56
2022-09-01T09:16:20.997Z,63.34
2022-09-01T09:18:55.835Z,63.06
2022-09-01T09:21:28.201Z,62.01
2022-09-01T09:24:05.131Z,61.35
2022-09-01T09:26:49.579Z,59.88
2022-09-01T09:29:18.119Z,60.07
2022-09-01T09:31:49.865Z,60.93
2022-09-01T09:34:33.170Z,59.99
2022-09-01T09:37:20.567Z,59.46
2022-09-01T09:40:08.497Z,59.45
2022-09-01T09:42:40.373Z,57.63
2022-09-01T09:45:19.203Z,58.65
2022-09-01T09:47:47.770Z,56.87
2022-09-01T09:50:23.937Z,57.95
2022-09-01T09:52:55.725Z,57.43
2022-09-01T09:55:29.187Z,57.02
2022-09-01T09:58:00.560Z,54.99
2022-09-01T10:00:30.375Z,55.83
2022-09-01T10:03:01.375Z,55.52
2022-09-01T10:05:39.762Z,55.04
2022-09-01T10:08:09.884Z,56.16
2022-09-01T10:10:40.968Z,57.81
2022-09-01T10:13:14.827Z,57.99
2022-09-01T10:15:49.166Z,54.60
2022-09-01T10:18:29.011Z,54.72
2022-09-01T10:21:00.535Z,56.02
2022-09-01T10:23:31.380Z,54.54
2022-09-01T10:26:05.998Z,53.90
2022-09-01T10:28:49.575Z,53.20
2022-09-01T10:31:23.988Z,54.42
2022-09-01T10:33:58.625Z,53.72
2022-09-01T10:36:26.778Z,53.42
2022-09-01T10:39:04.654Z,52.15
2022-09-01T10:42:00.770Z,52.26
2022-09-01T10:44:34.362Z,52.62
2022-09-01T10:47:19.914Z,52.52
2022-09-01T10:50:07.908Z,54.27
2022-09-01T10:52:57.025Z,55.74
2022-09-01T10:55:29.021Z,53.99
2022-09-01T11:05:18.793Z,53.37
2022-09-01T11:08:14.971Z,53.11
2022-09-01T11:10:52.534Z,52.68
2022-09-01T11:13:47.622Z,52.59
2022-09-01T11:16:50.081Z,52.76
2022-09-01T11:19:37.866Z,52.90
2022-09-01T11:22:29.502Z,52.98
2022-09-01T11:25:40.091Z,52.65
2022-09-01T11:28:47.022Z,51.75
2022-09-01T11:31:23.953Z,50.94
2022-09-01T11:34:10.784Z,50.42
2022-09-01T11:36:48.678Z,50.93
2022-09-01T11:39:30.592Z,48.94
2022-09-01T11:42:06.776Z,48.52
2022-09-01T11:44:42.529Z,50.30
2022-09-01T11:47:16.646Z,48.40
2022-09-01T11:49:54.864Z,47.14
2022-09-01T11:52:24.860Z,48.31
2022-09-01T11:54:52.754Z,46.63
2022-09-01T11:57:24.822Z,45.91
2022-09-01T11:59:53.829Z,47.00
2022-09-01T12:02:25.252Z,47.16
2022-09-01T12:04:56.307Z,46.16
2022-09-01T12:07:33.540Z,47.98
2022-09-01T12:10:01.647Z,48.91
2022-09-01T12:12:33.661Z,48.64
2022-09-01T12:15:06.781Z,48.64
2022-09-01T12:17:35.821Z,48.83
2022-09-01T12:20:38.636Z,48.97
2022-09-01T12:23:19.194Z,48.39
2022-09-01T12:25:48.281Z,49.07
2022-09-01T12:28:16.868Z,49.46
2022-09-01T12:30:45.319Z,48.40
2022-09-01T12:33:23.347Z,49.38
2022-09-01T12:35:58.829Z,49.82
2022-09-01T12:38:31.196Z,49.30
2022-09-01T12:41:00.057Z,49.54
2022-09-01T12:43:30.387Z,49.27
2022-09-01T12:46:00.075Z,49.36
2022-09-01T12:48:30.783Z,48.93
2022-09-01T12:51:04.724Z,48.63
2022-09-01T12:53:36.721Z,48.64
2022-09-01T12:56:22.785Z,48.18
2022-09-01T12:58:54.294Z,48.67
2022-09-01T13:01:28.564Z,49.77
2022-09-01T13:04:14.242Z,49.72
2022-09-01T13:06:43.511Z,50.01
2022-09-01T13:09:11.477Z,49.51
2022-09-01T13:14:28.498Z,48.18
2022-09-01T13:16:56.272Z,48.38
2022-09-01T13:19:28.803Z,48.77
2022-09-01T13:22:00.009Z,48.99
2022-09-01T13:24:30.414Z,48.17
2022-09-01T13:29:47.437Z,46.68
2022-09-01T13:32:19.100Z,47.46
2022-09-01T13:34:50.364Z,48.07
2022-09-01T13:37:20.688Z,49.46
2022-09-01T13:39:48.715Z,49.07
2022-09-01T13:42:17.437Z,49.13
2022-09-01T13:44:48.415Z,49.46
2022-09-01T13:47:32.976Z,49.60
2022-09-01T13:50:11.331Z,49.26
2022-09-01T13:52:42.928Z,49.07
2022-09-01T13:55:12.901Z,49.25
2022-09-01T13:57:41.325Z,48.59
2022-09-01T14:00:13.293Z,49.00
2022-09-01T14:02:49.085Z,49.61
2022-09-01T14:05:17.567Z,49.56
2022-09-01T14:07:47.128Z,49.53
2022-09-01T14:10:15.485Z,49.54
2022-09-01T14:12:43.872Z,48.76
2022-09-01T14:15:15.969Z,49.11
2022-09-01T14:17:45.609Z,49.51
2022-09-01T14:20:16.057Z,50.28
2022-09-01T14:22:44.267Z,49.63
2022-09-01T14:25:13.724Z,49.36
2022-09-01T14:27:42.820Z,49.60
2022-09-01T14:30:16.672Z,50.00
2022-09-01T14:32:45.055Z,49.76
2022-09-01T14:35:13.358Z,50.53
2022-09-01T14:37:42.022Z,50.28
2022-09-01T14:40:16.852Z,49.75
2022-09-01T14:42:49.642Z,50.41
2022-09-01T14:45:18.788Z,49.71
2022-09-01T14:47:47.632Z,48.99
2022-09-01T14:50:19.887Z,49.15
2022-09-01T14:52:52.890Z,49.44
2022-09-01T14:55:22.209Z,50.08
2022-09-01T14:57:52.243Z,50.14
2022-09-01T15:00:20.820Z,50.49
2022-09-01T15:02:49.727Z,50.94
2022-09-01T15:05:18.112Z,50.43
2022-09-01T15:07:46.286Z,50.83
2022-09-01T15:10:24.573Z,49.88
2022-09-01T15:12:57.005Z,50.35
2022-09-01T15:15:26.311Z,50.00
2022-09-01T15:17:54.595Z,50.39
2022-09-01T15:20:40.634Z,50.98
2022-09-01T15:23:08.994Z,50.66
2022-09-01T15:25:36.897Z,50.15
2022-09-01T15:28:06.816Z,50.74
2022-09-01T15:30:35.970Z,49.29
2022-09-01T15:33:04.828Z,48.64
2022-09-01T15:35:33.598Z,49.42
2022-09-01T15:38:01.876Z,49.27
2022-09-01T15:40:30.285Z,49.71
2022-09-01T15:43:00.010Z,49.16
2022-09-01T15:45:30.082Z,48.96
2022-09-01T15:47:58.103Z,48.79
2022-09-01T15:50:27.945Z,47.90
2022-09-01T15:52:58.575Z,49.16
2022-09-01T15:55:28.865Z,49.11
2022-09-01T15:57:56.624Z,49.15
2022-09-01T16:00:26.756Z,48.97
2022-09-01T16:02:56.648Z,48.42
2022-09-01T16:05:25.122Z,48.41
2022-09-01T16:10:23.223Z,49.02
2022-09-01T16:12:51.747Z,49.02
2022-09-01T16:15:21.866Z,49.44
2022-09-01T16:18:12.533Z,49.03
2022-09-01T16:20:50.951Z,49.22
2022-09-01T16:23:21.462Z,49.28
2022-09-01T16:25:50.249Z,48.94
2022-09-01T16:28:27.284Z,49.77
2022-09-01T16:31:01.012Z,50.25
2022-09-01T16:33:28.957Z,50.09
2022-09-01T16:36:17.171Z,49.87
2022-09-01T16:38:49.954Z,50.41
2022-09-01T16:41:41.058Z,50.07
2022-09-01T16:44:18.988Z,50.75
2022-09-01T16:46:55.507Z,51.31
2022-09-01T16:49:30.184Z,51.05
2022-09-01T16:52:05.479Z,50.99
2022-09-01T16:54:43.809Z,50.89
2022-09-01T16:57:21.672Z,51.37
2022-09-01T16:59:55.631Z,51.42
2022-09-01T17:02:49.951Z,51.84
2022-09-01T17:05:24.035Z,53.07
2022-09-01T17:08:06.840Z,53.35
2022-09-01T17:10:42.804Z,53.17
2022-09-01T17:13:20.132Z,53.88
2022-09-01T17:15:53.791Z,54.08
2022-09-01T17:18:30.815Z,53.89
2022-09-01T17:21:04.099Z,53.81
2022-09-01T17:23:40.681Z,53.71
2022-09-01T17:26:14.583Z,53.75
2022-09-01T17:28:51.866Z,53.71
2022-09-01T17:31:38.346Z,54.25
2022-09-01T17:34:21.043Z,54.41
2022-09-01T17:36:58.186Z,54.84
2022-09-01T17:39:42.136Z,55.17
2022-09-01T17:42:23.027Z,54.85
2022-09-01T17:44:56.100Z,55.31
2022-09-01T17:47:37.257Z,55.54
2022-09-01T17:50:15.231Z,55.73
2022-09-01T17:52:52.874Z,55.95
2022-09-01T17:55:37.130Z,55.29
2022-09-01T17:58:12.884Z,55.89
2022-09-01T18:00:52.674Z,56.10
2022-09-01T18:03:44.784Z,58.26
2022-09-01T18:06:18.273Z,59.17
2022-09-01T18:08:49.891Z,58.16
2022-09-01T18:11:27.601Z,59.13
2022-09-01T18:14:00.855Z,58.76
2022-09-01T18:16:31.111Z,59.25
2022-09-01T18:19:04.031Z,59.97
2022-09-01T18:21:36.649Z,61.75
2022-09-01T18:24:14.176Z,62.35
2022-09-01T18:26:47.732Z,62.25
2022-09-01T18:29:16.038Z,61.84
2022-09-01T18:32:03.862Z,62.02
2022-09-01T18:34:48.886Z,62.42
2022-09-01T18:37:25.452Z,62.72
2022-09-01T18:40:01.381Z,62.91
2022-09-01T18:42:37.202Z,63.76
2022-09-01T18:45:16.524Z,64.09
2022-09-01T18:47:55.951Z,65.07
2022-09-01T18:50:29.013Z,65.31
2022-09-01T18:53:05.648Z,65.50
2022-09-01T18:55:43.796Z,66.41
2022-09-01T18:58:25.884Z,67.84
2022-09-01T19:01:03.932Z,68.77
2022-09-01T19:03:34.930Z,67.92
2022-09-01T19:06:20.262Z,67.70
2022-09-01T19:09:04.197Z,67.84
2022-09-01T19:11:55.531Z,68.21
2022-09-01T19:14:31.711Z,68.51
2022-09-01T19:17:25.931Z,69.14
2022-09-01T19:19:58.910Z,70.04
2022-09-01T19:22:34.987Z,69.57
2022-09-01T19:25:21.353Z,70.76
2022-09-01T19:27:56.878Z,71.16
2022-09-01T19:30:26.299Z,71.44
2022-09-01T19:32:55.051Z,72.19
2022-09-01T19:35:23.235Z,72.72
2022-09-01T19:37:51.838Z,72.07
2022-09-01T19:40:26.345Z,72.55
2022-09-01T19:42:59.651Z,72.91
2022-09-01T19:45:39.023Z,72.95
2022-09-01T19:48:16.427Z,72.92
2022-09-01T19:50:51.022Z,73.89
2022-09-01T19:53:36.404Z,73.70
2022-09-01T19:56:10.230Z,73.97
2022-09-01T19:58:52.702Z,74.03
2022-09-01T20:01:34.290Z,74.20
2022-09-01T20:04:11.850Z,75.04
2022-09-01T20:06:43.888Z,75.09
2022-09-01T20:09:17.446Z,74.91
2022-09-01T20:11:52.677Z,75.77
2022-09-01T20:14:44.363Z,75.71
2022-09-01T20:17:21.204Z,77.20
2022-09-01T20:19:55.258Z,77.44
2022-09-01T20:22:31.293Z,77.38
2022-09-01T20:25:08.470Z,78.27
2022-09-01T20:27:46.150Z,77.94
2022-09-01T20:30:15.948Z,77.15
2022-09-01T20:32:53.214Z,76.75
2022-09-01T20:35:25.743Z,76.33
2022-09-01T20:38:03.837Z,76.93
2022-09-01T20:40:35.781Z,76.94
2022-09-01T20:43:18.561Z,77.20
2022-09-01T20:45:46.846Z,77.46
2022-09-01T20:48:18.880Z,77.64
2022-09-01T20:50:52.558Z,77.32
2022-09-01T20:53:43.824Z,77.10
2022-09-01T20:56:20.183Z,76.59
2022-09-01T20:58:54.814Z,76.90
2022-09-01T21:01:32.455Z,77.62
2022-09-01T21:04:09.316Z,77.95
2022-09-01T21:06:50.121Z,78.15
2022-09-01T21:09:28.864Z,78.78
2022-09-01T21:12:06.483Z,77.98
2022-09-01T21:14:46.858Z,78.74
2022-09-01T21:17:24.692Z,79.30
2022-09-01T21:20:05.890Z,79.43
2022-09-01T21:22:33.720Z,79.78
2022-09-01T21:25:01.762Z,80.63
2022-09-01T21:27:36.946Z,80.91
2022-09-01T21:30:07.608Z,80.57
2022-09-01T21:32:35.706Z,80.90
2022-09-01T21:35:06.493Z,81.12
2022-09-01T21:37:34.362Z,81.03
2022-09-01T21:40:02.486Z,80.67
2022-09-01T21:42:33.700Z,80.67
2022-09-01T21:45:02.489Z,80.62
2022-09-01T21:47:31.874Z,80.85
2022-09-01T21:49:59.710Z,80.63
2022-09-01T21:52:29.177Z,80.99
2022-09-01T21:54:57.043Z,80.60
2022-09-01T21:57:25.059Z,80.74
2022-09-01T21:59:52.883Z,81.18
2022-09-01T22:02:21.205Z,81.64
2022-09-01T22:04:49.164Z,82.51
2022-09-01T22:07:21.151Z,83.04
2022-09-01T22:09:50.366Z,83.28
2022-09-01T22:12:18.285Z,82.95
2022-09-01T22:14:46.121Z,83.15
2022-09-01T22:17:13.939Z,82.55
2022-09-01T22:19:41.763Z,81.49
2022-09-01T22:22:12.911Z,81.40
2022-09-01T22:24:40.716Z,80.77
2022-09-01T22:27:10.072Z,81.58
2022-09-01T22:29:37.899Z,81.14
2022-09-01T22:32:06.005Z,82.68
2022-09-01T22:34:34.478Z,81.92
2022-09-01T22:37:02.725Z,82.16
2022-09-01T22:39:30.662Z,81.90
2022-09-01T22:41:58.492Z,82.11
2022-09-01T22:44:27.718Z,82.13
2022-09-01T22:46:55.501Z,82.09
2022-09-01T22:49:23.348Z,81.75
2022-09-01T22:51:51.423Z,81.76
2022-09-01T22:54:19.287Z,82.80
2022-09-01T22:56:49.783Z,83.12
2022-09-01T22:59:17.649Z,82.26
2022-09-01T23:01:48.601Z,81.64
2022-09-01T23:04:17.908Z,81.49
2022-09-01T23:06:49.475Z,81.01
2022-09-01T23:09:18.595Z,80.57
2022-09-01T23:11:47.712Z,80.40
2022-09-01T23:14:15.708Z,80.16
2022-09-01T23:16:43.595Z,80.96
2022-09-01T23:19:12.838Z,82.18
2022-09-01T23:21:40.718Z,81.73
2022-09-01T23:24:08.837Z,81.41
2022-09-01T23:26:36.930Z,81.04
2022-09-01T23:29:05.106Z,81.44
2022-09-01T23:31:35.896Z,82.33
2022-09-01T23:34:04.816Z,82.34
2022-09-01T23:36:35.412Z,82.68
2022-09-01T23:39:03.270Z,82.98
2022-09-01T23:41:33.460Z,82.52
2022-09-01T23:44:03.809Z,82.44
2022-09-01T23:46:33.420Z,83.58
2022-09-01T23:49:02.430Z,83.70
2022-09-01T23:51:30.362Z,83.21
2022-09-01T23:53:59.569Z,83.55
2022-09-01T23:56:30.170Z,83.62
2022-09-01T23:58:58.527Z,82.85
